Terminal Aerodrome Forecast
Issued by NWS

Home | Current Version | Previous Version | Text Only | Print | Product List | Glossary On
Versions: 1 2 3 4 5 6 7 8 9 10 11 12 13 14 15 16 17 18 19 20 21 22 23 24 25 26 27
000
FTUS41 KILN 010200 AAB
TAFLUK
TAF AMD
KLUK 010213Z 0102/0124 22005KT P6SM VCTS SCT035CB BKN060
      TEMPO 0103/0105 3SM -TSRA BR BKN035CB
     FM010500 25006KT 4SM BR FEW040 SCT100
     FM010900 28004KT 2SM BR FEW005
      TEMPO 0109/0113 1/2SM FG VV003
     FM011300 30005KT P6SM SCT008
      TEMPO 0113/0116 BKN010
     FM011600 29006KT P6SM SCT030=

USA.gov is the U.S. government's official web portal to all federal, state and local government web resources and services.